Kenosha Regional Airport Kenosha US
ICAO: KENW
IATA: ENW
Category: Medium
Scheduled Services: No

Elevation: 742 ft
TransAlt. 18000 ft.

Airport Communications:
MILWAUKEE APP/DEP:120.15
ASOS:127.175
ATIS:127.175
CLNC DEL:118.6
CTAF:118.6
GND:121.875
GREEN BAY RDO:109.2
TWR:118.6
UNICOM:122.95

KENW Zoom In..

Runways:

(A) RW 07L length 5499 ft width 100 ft
ILS 109.35 / hdg 66

(B) RW 07R length 3302 ft width 75 ft
---- / hdg 66

(C) RW 15 length 4440 ft width 100 ft
---- / hdg 146

(D) RW 25L length 3302 ft width 75 ft
---- / hdg 246

(E) RW 25R length 5499 ft width 100 ft
---- / hdg 246

(F) RW 33 length 4440 ft width 100 ft
---- / hdg 326

Location; KENW
Day. 22 / Time. 23.53 Zulu
* Altimeter: 29.44
* Temperature: 06° c. 42.8°f.
* Wind from: 060° Speed 09 kn.
Dewpoint: 04° c.
Visibility: 5 Statute Miles.
Clouds: Broken 2200 ft.
Clouds: Broken 3100 ft.
Clouds: Broken 4100 ft.
Conditions: Mist.

KENW 222353Z 06009KT 5SM BR BKN022 BKN031 BKN041 06/04 A2944 RMK AO2 SLP974 60001 T00560044 10117 20056 51004


Wind From 060°
Speed 09 kn.

YouTube Music Video
 
jpsmedia.com for Web Design  worldairports.se 2018   terms of use